CMB810 Details

Departure: Ramstein Air Force Base (ETAR)
Arrival: Joint Base McGuire Dix Lakehurst (KWRI) at N/A
Notes: USTRANSCOM CONTRACT FLIGHT


Current Weather Information
ETAR 250418Z AUTO 00000KT 1600 R08/1300VP1500 BR CLR 11/10 A3009 RMK AO2 VIS 1600V4400 SLP185 $
KWRI 250356Z AUTO 00000KT 10SM SCT075 15/13 A3023 RMK AO2 SLP236 T01530130 $